EA3GYL La Torregassa ES current weather conditions

sailwx.info

Wind from 031 at 0 knots gusting 3

Air temperature 15.6° C
Dewpoint 8.3° C

Last reported at 2017-Nov-17 17:04 UTC.
Time now 2017-Nov-17 17:45 UTC

Location: N 41°17' E 001°31'.
View on Google Maps.

See reports from other nearby stations

  
Tides and Currents Weather Stations Pressure Air Temp Water Temp Dewpoint Dewpoint Depression Visibility Wind Speed Wind Dir Waves Ship Positions
date/time (UTC)wind fromknots sea level pressurealtimeterstation pressurevisibilityair tempwater tempwave heightnotes
2017-Nov-17 17:04 031 0 gusting 3 15.6
2017-Nov-17 16:55 031 15.6
2017-Nov-17 16:46 027 0 gusting 2 16.1
2017-Nov-17 16:37 031 0 gusting 3 16.1
2017-Nov-17 16:28 033 1 gusting 3 16.7
2017-Nov-17 16:10 037 1 gusting 3 17.2
2017-Nov-17 16:01 029 1 gusting 3 17.8
2017-Nov-17 15:52 028 1 gusting 4 18.3
2017-Nov-17 15:43 064 0 gusting 3 18.3
2017-Nov-17 15:34 102 0 gusting 3 18.9
2017-Nov-17 15:25 101 0 gusting 2 18.9
2017-Nov-17 15:07 107 0 gusting 2 18.9
2017-Nov-17 14:49 108 1 gusting 3 18.9
2017-Nov-17 14:40 117 2 gusting 4 18.9
2017-Nov-17 14:31 129 1 gusting 5 19.4
2017-Nov-17 14:22 125 1 gusting 5 19.4
2017-Nov-17 14:04 139 0 gusting 3 20.0
2017-Nov-17 13:55 134 0 gusting 3 20.0
2017-Nov-17 13:46 151 0 gusting 3 20.0
2017-Nov-17 13:28 152 0 gusting 3 19.4
2017-Nov-17 13:19 159 0 gusting 1 19.4
2017-Nov-17 13:10 163 0 gusting 2 19.4
2017-Nov-17 13:01 173 0 gusting 2 19.4
2017-Nov-17 12:52 158 0 gusting 2 19.4
2017-Nov-17 12:43 161 0 gusting 2 18.9
2017-Nov-17 12:34 135 0 gusting 2 18.3
2017-Nov-17 12:25 126 0 gusting 3 18.3
2017-Nov-17 12:16 124 0 gusting 3 18.3
2017-Nov-17 12:07 107 0 gusting 2 17.8
2017-Nov-17 11:58 100 0 gusting 2 17.8
2017-Nov-17 11:49 076 17.2
2017-Nov-17 11:40 17.2
2017-Nov-17 11:31 122 0 gusting 2 16.7
2017-Nov-17 11:22 119 1 gusting 3 16.7
2017-Nov-17 11:13 115 0 gusting 2 16.1
2017-Nov-17 11:04 105 0 gusting 2 16.1
2017-Nov-17 10:55 118 0 gusting 1 16.1
2017-Nov-17 10:46 126 0 gusting 2 16.1
2017-Nov-17 10:37 15.6
2017-Nov-17 10:28 108 0 gusting 1 15.0
2017-Nov-17 10:19 104 0 gusting 1 14.4
2017-Nov-17 10:10 096 0 gusting 2 14.4
2017-Nov-17 10:01 090 0 gusting 1 13.9
2017-Nov-17 09:52 076 0 gusting 3 13.3
2017-Nov-17 09:43 13.3
2017-Nov-17 09:34 13.3
2017-Nov-17 09:25 12.8
2017-Nov-17 09:16 12.2
2017-Nov-17 09:07 12.2
2017-Nov-17 08:58 11.7
2017-Nov-17 08:49 11.1
2017-Nov-17 08:40 9.4
2017-Nov-17 08:31 8.9
2017-Nov-17 08:22 277 0 gusting 1 8.9
2017-Nov-16 22:13 146 3 gusting 6 16.1
2017-Nov-16 22:04 146 3 gusting 6 16.1
2017-Nov-16 21:55 146 3 gusting 6 16.1
2017-Nov-16 21:46 146 3 gusting 6 16.1
2017-Nov-16 21:37 146 3 gusting 6 16.1
2017-Nov-16 21:28 146 3 gusting 6 16.1
2017-Nov-16 21:19 146 3 gusting 6 16.1
2017-Nov-16 21:10 146 3 gusting 6 16.1
2017-Nov-16 21:01 146 3 gusting 6 16.1
2017-Nov-16 20:52 146 3 gusting 6 16.1
2017-Nov-16 20:43 146 3 gusting 6 16.1
2017-Nov-16 20:34 146 3 gusting 6 16.1
2017-Nov-16 20:25 146 3 gusting 6 16.1
2017-Nov-16 20:16 146 3 gusting 6 16.1
2017-Nov-16 20:07 146 3 gusting 6 16.1
2017-Nov-16 19:58 146 3 gusting 6 16.1
2017-Nov-16 19:49 146 3 gusting 6 16.1
2017-Nov-16 19:40 146 3 gusting 6 16.1
2017-Nov-16 19:31 146 3 gusting 6 16.1
2017-Nov-16 19:22 146 3 gusting 6 16.1
2017-Nov-16 19:13 146 3 gusting 6 16.1
2017-Nov-16 19:04 146 3 gusting 6 16.1
2017-Nov-16 18:55 146 3 gusting 6 16.1
2017-Nov-16 18:46 146 3 gusting 6 16.1
2017-Nov-16 18:37 146 3 gusting 6 16.1
2017-Nov-16 18:28 146 3 gusting 6 16.1
2017-Nov-16 18:19 146 3 gusting 6 16.1
2017-Nov-16 18:10 146 3 gusting 6 16.1
2017-Nov-16 18:01 146 3 gusting 6 16.1
2017-Nov-16 17:52 146 3 gusting 6 16.1
2017-Nov-16 17:43 146 3 gusting 6 16.1
2017-Nov-16 17:34 146 3 gusting 6 16.1
2017-Nov-16 17:25 146 3 gusting 6 16.1
2017-Nov-16 17:16 146 3 gusting 6 16.1
2017-Nov-16 17:07 146 3 gusting 6 16.1
2017-Nov-16 16:58 146 3 gusting 6 16.1
2017-Nov-16 16:49 146 3 gusting 6 16.1
2017-Nov-16 16:40 146 3 gusting 6 16.1
2017-Nov-16 16:31 146 3 gusting 6 16.1
2017-Nov-16 16:22 146 3 gusting 6 16.1
2017-Nov-16 16:13 146 3 gusting 6 16.1
2017-Nov-16 16:04 146 3 gusting 6 16.1
2017-Nov-16 15:55 146 3 gusting 6 16.1
2017-Nov-16 15:46 146 3 gusting 6 16.1
2017-Nov-16 15:37 146 3 gusting 6 16.1
2017-Nov-16 15:28 146 3 gusting 6 16.1
2017-Nov-16 15:19 146 3 gusting 6 16.1
2017-Nov-16 15:10 146 3 gusting 6 16.1
2017-Nov-16 15:01 146 3 gusting 6 16.1
2017-Nov-16 14:52 145 3 gusting 6 16.1
2017-Nov-16 14:43 140 3 gusting 7 16.1
2017-Nov-16 14:34 136 4 gusting 6 16.1
2017-Nov-16 14:25 143 3 gusting 7 16.1
2017-Nov-16 14:16 139 4 gusting 8 16.1
2017-Nov-16 14:07 134 3 gusting 8 16.1
2017-Nov-16 13:58 134 3 gusting 6 16.1
2017-Nov-16 13:49 135 3 gusting 7 16.1
2017-Nov-16 13:40 136 3 gusting 7 16.1
2017-Nov-16 13:31 144 2 gusting 6 16.1
2017-Nov-16 13:22 134 2 gusting 5 16.1
2017-Nov-16 13:13 153 2 gusting 5 16.7
2017-Nov-16 13:04 139 1 gusting 6 16.7
2017-Nov-16 12:55 167 1 gusting 4 16.7
2017-Nov-16 12:46 162 1 gusting 4 16.7
2017-Nov-16 12:37 122 2 gusting 7 16.1
2017-Nov-16 12:28 138 1 gusting 4 16.1
2017-Nov-16 12:19 157 1 gusting 6 16.1
2017-Nov-16 12:10 146 0 gusting 3 16.1
2017-Nov-16 12:01 184 0 gusting 4 16.1
2017-Nov-16 11:52 204 1 gusting 3 15.6
2017-Nov-16 11:43 131 0 gusting 3 15.6
2017-Nov-16 11:34 155 0 gusting 3 15.6
2017-Nov-16 11:25 164 0 gusting 2 15.6
2017-Nov-16 11:07 121 0 gusting 4 15.0
2017-Nov-16 10:58 123 0 gusting 4 14.4
2017-Nov-16 10:49 132 15.0
2017-Nov-16 10:40 119 0 gusting 2 14.4
2017-Nov-16 10:31 117 0 gusting 2 14.4
2017-Nov-16 10:22 113 0 gusting 3 14.4
2017-Nov-16 10:13 132 0 gusting 2 14.4
2017-Nov-16 10:04 120 13.9
2017-Nov-16 09:55 065 0 gusting 1 13.3
2017-Nov-16 09:46 13.3
2017-Nov-16 09:37 12.8
2017-Nov-16 09:28 12.8
2017-Nov-16 09:19 12.2
2017-Nov-15 23:38 7.2
2017-Nov-15 23:29 8.3
2017-Nov-15 23:20 8.9
2017-Nov-15 23:11 9.4
2017-Nov-15 23:02 8.9
2017-Nov-15 22:53 8.9
2017-Nov-15 22:44 8.9
2017-Nov-15 22:35 8.9
2017-Nov-15 22:03 096 0 gusting 1 8.3
2017-Nov-15 21:54 096 0 gusting 1 8.3
2017-Nov-15 21:45 096 0 gusting 1 8.3
2017-Nov-15 21:36 096 0 gusting 1 8.3
2017-Nov-15 21:27 096 0 gusting 1 8.3
2017-Nov-15 21:18 096 0 gusting 1 8.3
2017-Nov-15 21:09 096 0 gusting 1 8.3
2017-Nov-15 21:00 096 0 gusting 1 8.3
2017-Nov-15 20:51 096 0 gusting 1 8.3
2017-Nov-15 20:42 096 0 gusting 1 8.3
2017-Nov-15 20:33 096 0 gusting 1 8.3
2017-Nov-15 20:24 096 0 gusting 1 8.3
2017-Nov-15 20:15 096 0 gusting 1 8.3
2017-Nov-15 20:06 096 0 gusting 1 8.3
2017-Nov-15 19:57 096 0 gusting 1 8.3
2017-Nov-15 19:48 096 0 gusting 1 8.3
2017-Nov-15 19:39 096 0 gusting 1 8.3
2017-Nov-15 19:30 096 0 gusting 1 8.3
2017-Nov-15 19:21 096 0 gusting 1 8.3
2017-Nov-15 19:12 096 0 gusting 1 8.3
2017-Nov-15 19:03 096 0 gusting 1 8.3
2017-Nov-15 18:54 096 0 gusting 1 8.3
2017-Nov-15 18:45 096 0 gusting 1 8.3
2017-Nov-15 18:36 096 0 gusting 1 8.3
2017-Nov-15 18:27 096 0 gusting 1 8.3
2017-Nov-15 18:18 096 0 gusting 1 8.3
2017-Nov-15 18:09 096 0 gusting 1 8.3
2017-Nov-15 18:00 096 0 gusting 1 8.3
2017-Nov-15 17:51 096 0 gusting 1 8.3
2017-Nov-15 17:42 096 0 gusting 1 8.3
2017-Nov-15 17:33 096 0 gusting 1 8.3
2017-Nov-15 17:24 096 0 gusting 1 8.3
2017-Nov-15 17:15 096 0 gusting 1 8.3
2017-Nov-15 17:06 096 0 gusting 1 8.3